Milwaukee, Wisconsin
Traffic Map
Current Weather Conditions
Milwaukee, Wisconsin
Overcast
Overcast

Feels Like: 3°
Wind Chill: Ceiling: 1300
Heat Index: Visibility: 10mi
Dew Point: Wind: 16mph
Humidity: 89% Direction: 30° (NNE)
Pressure: 29.97in Gusts: 24mph
Raw Report DataKMKE 010552Z 03014G21KT 10SM FEW007 OVC013 07/05 A2997 RMK AO2 SLP154 60022 T00670050 10067 20056 400780044 56003
Traffic Incident Summary
Active as of:
Severity:
Category:
InformationThere was an issue retrieving the traffic information for this location. Please try a different location or try again shortly.
Advertisements
Track Severe Weather on mobile